Jefferson, Wisconsin
Current Conditions -  °F | °C
As of 8:15 AM on Thursday 23 Oct 2014 (Local Time) from KRYV Reporting Station
Clear Clear  
Wind Chill:   Ceiling: Unl
Heat Index:   Visibility: 7mi
Dew Point:   Wind: 3mph
Humidity: 94%   Direction: 170°S
Pressure: 30.16"   Gusts: NA
Location:  43°N, 88.81°W
Report Text: KRYV 231315Z AUTO 17003KT 7SM CLR 04/03 A3016 RMK AO2 T00390030
Loading
Personal Weather Stations






























Interactive Weather Map
Tropical Storm Tracking
New forecast layout! Learn more

10-Day Weather Forecast

Advertisements
Track Severe Weather on mobile